createdAt,value
2022-12-18T00:01:34.276Z,46.66
2022-12-18T00:04:01.174Z,46.90
2022-12-18T00:06:28.064Z,46.77
2022-12-18T00:08:54.460Z,46.98
2022-12-18T00:11:21.653Z,46.71
2022-12-18T00:13:47.937Z,46.76
2022-12-18T00:16:15.294Z,46.30
2022-12-18T00:18:42.071Z,46.25
2022-12-18T00:21:08.904Z,46.23
2022-12-18T00:23:36.037Z,46.39
2022-12-18T00:26:02.887Z,46.26
2022-12-18T00:28:29.162Z,45.39
2022-12-18T00:31:05.475Z,45.09
2022-12-18T00:33:31.876Z,45.65
2022-12-18T00:36:02.036Z,45.87
2022-12-18T00:38:28.321Z,45.96
2022-12-18T00:40:54.584Z,45.75
2022-12-18T00:43:20.857Z,45.47
2022-12-18T00:45:47.239Z,45.14
2022-12-18T00:48:13.750Z,45.85
2022-12-18T00:50:40.035Z,45.61
2022-12-18T00:53:06.363Z,45.58
2022-12-18T00:55:32.641Z,45.41
2022-12-18T00:57:58.901Z,45.01
2022-12-18T01:00:25.239Z,44.10
2022-12-18T01:02:51.641Z,44.37
2022-12-18T01:05:18.014Z,44.82
2022-12-18T01:07:44.321Z,44.32
2022-12-18T01:10:10.697Z,44.33
2022-12-18T01:12:36.968Z,44.67
2022-12-18T01:15:03.562Z,44.38
2022-12-18T01:17:29.880Z,44.34
2022-12-18T01:19:56.141Z,44.69
2022-12-18T01:22:22.406Z,45.62
2022-12-18T01:24:48.703Z,45.78
2022-12-18T01:27:16.771Z,45.99
2022-12-18T01:29:43.379Z,45.41
2022-12-18T01:32:09.721Z,46.03
2022-12-18T01:34:36.668Z,45.68
2022-12-18T01:37:04.013Z,45.88
2022-12-18T01:39:30.267Z,44.76
2022-12-18T01:42:02.360Z,44.95
2022-12-18T01:44:47.575Z,44.86
2022-12-18T01:47:19.206Z,44.34
2022-12-18T01:49:45.499Z,44.17
2022-12-18T01:52:11.762Z,44.03
2022-12-18T01:54:38.028Z,44.06
2022-12-18T01:57:04.296Z,44.54
2022-12-18T01:59:30.661Z,44.11
2022-12-18T02:01:57.181Z,43.74
2022-12-18T02:04:26.728Z,44.11
2022-12-18T02:07:00.524Z,44.41
2022-12-18T02:09:31.651Z,44.18
2022-12-18T02:12:00.586Z,44.31
2022-12-18T02:14:33.833Z,44.08
2022-12-18T02:17:08.067Z,43.81
2022-12-18T02:19:52.469Z,43.77
2022-12-18T02:22:36.398Z,43.78
2022-12-18T02:25:14.393Z,43.44
2022-12-18T02:27:40.692Z,44.40
2022-12-18T02:30:07.079Z,44.18
2022-12-18T02:32:40.447Z,45.10
2022-12-18T02:35:07.416Z,45.70
2022-12-18T02:37:33.696Z,45.62
2022-12-18T02:40:00.166Z,45.58
2022-12-18T02:42:26.662Z,45.31
2022-12-18T02:44:55.888Z,44.82
2022-12-18T02:47:22.870Z,44.63
2022-12-18T02:50:07.770Z,44.74
2022-12-18T02:52:43.205Z,44.33
2022-12-18T02:55:09.463Z,44.01
2022-12-18T02:57:37.676Z,43.45
2022-12-18T03:00:07.323Z,43.47
2022-12-18T03:02:36.763Z,43.12
2022-12-18T03:05:19.781Z,42.66
2022-12-18T03:07:51.531Z,42.78
2022-12-18T03:10:19.116Z,42.47
2022-12-18T03:13:01.063Z,43.02
2022-12-18T03:15:38.038Z,42.87
2022-12-18T03:18:05.533Z,42.98
2022-12-18T03:20:32.165Z,42.37
2022-12-18T03:23:00.403Z,42.81
2022-12-18T03:25:26.705Z,42.47
2022-12-18T03:27:54.141Z,42.13
2022-12-18T03:30:20.407Z,42.06
2022-12-18T03:32:51.308Z,42.20
2022-12-18T03:35:18.755Z,41.98
2022-12-18T03:37:45.030Z,41.84
2022-12-18T03:40:11.409Z,41.86
2022-12-18T03:42:50.837Z,41.83
2022-12-18T03:45:25.029Z,41.79
2022-12-18T03:47:51.228Z,41.79
2022-12-18T03:50:37.739Z,41.91
2022-12-18T03:53:07.811Z,41.82
2022-12-18T03:55:34.592Z,41.69
2022-12-18T03:58:00.918Z,41.93
2022-12-18T04:00:27.187Z,41.81
2022-12-18T04:02:54.116Z,41.64
2022-12-18T04:05:20.536Z,41.38
2022-12-18T04:07:47.658Z,41.70
2022-12-18T04:10:14.020Z,41.60
2022-12-18T04:12:40.300Z,41.48
2022-12-18T04:15:06.893Z,41.10
2022-12-18T04:17:33.167Z,41.33
2022-12-18T04:19:59.440Z,41.95
2022-12-18T04:22:25.727Z,41.69
2022-12-18T04:24:51.993Z,42.26
2022-12-18T04:27:18.262Z,42.60
2022-12-18T04:29:44.548Z,42.78
2022-12-18T04:32:10.979Z,42.98
2022-12-18T04:34:37.259Z,42.43
2022-12-18T04:37:03.561Z,41.63
2022-12-18T04:39:29.913Z,41.38
2022-12-18T04:41:56.191Z,41.64
2022-12-18T04:44:22.793Z,41.13
2022-12-18T04:46:49.313Z,40.93
2022-12-18T04:49:15.763Z,40.53
2022-12-18T04:51:42.020Z,40.68
2022-12-18T04:54:08.278Z,40.51
2022-12-18T04:56:34.587Z,40.87
2022-12-18T04:59:00.910Z,40.99
2022-12-18T05:01:34.070Z,40.72
2022-12-18T05:04:01.233Z,40.73
2022-12-18T05:06:27.563Z,40.75
2022-12-18T05:08:53.841Z,40.40
2022-12-18T05:11:20.176Z,40.32
2022-12-18T05:13:46.456Z,39.96
2022-12-18T05:16:12.965Z,39.90
2022-12-18T05:18:39.282Z,40.20
2022-12-18T05:21:05.661Z,39.99
2022-12-18T05:23:32.000Z,40.18
2022-12-18T05:25:58.976Z,40.39
2022-12-18T05:28:25.510Z,40.38
2022-12-18T05:30:52.331Z,40.17
2022-12-18T05:33:19.101Z,40.40
2022-12-18T05:35:45.387Z,40.07
2022-12-18T05:38:11.654Z,40.88
2022-12-18T05:40:37.914Z,40.37
2022-12-18T05:43:04.199Z,41.00
2022-12-18T05:45:30.479Z,40.58
2022-12-18T05:47:56.772Z,40.73
2022-12-18T05:50:23.356Z,40.80
2022-12-18T05:52:50.339Z,40.58
2022-12-18T05:55:16.606Z,40.46
2022-12-18T05:57:42.884Z,40.36
2022-12-18T06:00:09.572Z,39.65
2022-12-18T06:02:35.976Z,39.60
2022-12-18T06:05:02.379Z,39.06
2022-12-18T06:07:28.660Z,39.32
2022-12-18T06:09:55.000Z,39.13
2022-12-18T06:12:22.004Z,39.61
2022-12-18T06:14:48.273Z,39.10
2022-12-18T06:17:14.541Z,39.32
2022-12-18T06:19:40.855Z,39.20
2022-12-18T06:22:07.215Z,39.25
2022-12-18T06:24:34.014Z,39.29
2022-12-18T06:27:00.304Z,39.08
2022-12-18T06:29:26.582Z,38.66
2022-12-18T06:31:52.888Z,38.81
2022-12-18T06:34:19.214Z,38.95
2022-12-18T06:36:45.477Z,38.72
2022-12-18T06:39:11.757Z,38.83
2022-12-18T06:41:38.081Z,38.63
2022-12-18T06:44:06.707Z,39.46
2022-12-18T06:46:33.221Z,39.10
2022-12-18T06:48:59.529Z,38.82
2022-12-18T06:51:25.840Z,38.77
2022-12-18T06:53:52.109Z,38.76
2022-12-18T06:56:18.428Z,38.31
2022-12-18T06:58:44.747Z,39.05
2022-12-18T07:01:11.487Z,38.53
2022-12-18T07:03:38.710Z,38.13
2022-12-18T07:06:05.496Z,37.68
2022-12-18T07:08:31.852Z,37.90
2022-12-18T07:10:58.172Z,37.77
2022-12-18T07:13:24.462Z,37.88
2022-12-18T07:15:50.720Z,37.78
2022-12-18T07:18:16.979Z,37.23
2022-12-18T07:20:43.251Z,37.89
2022-12-18T07:23:09.645Z,37.76
2022-12-18T07:25:36.379Z,37.67
2022-12-18T07:28:02.719Z,37.62
2022-12-18T07:30:29.651Z,37.12
2022-12-18T07:32:55.993Z,37.84
2022-12-18T07:35:25.158Z,38.55
2022-12-18T07:37:51.828Z,38.85
2022-12-18T07:40:18.180Z,38.25
2022-12-18T07:42:44.455Z,38.07
2022-12-18T07:45:10.806Z,37.86
2022-12-18T07:47:37.289Z,37.93
2022-12-18T07:50:04.380Z,37.71
2022-12-18T07:52:30.657Z,37.66
2022-12-18T07:54:57.245Z,37.37
2022-12-18T07:57:48.949Z,36.91
2022-12-18T08:00:10.057Z,37.05
2022-12-18T08:02:36.452Z,37.25
2022-12-18T08:05:02.773Z,37.73
2022-12-18T08:07:29.131Z,37.21
2022-12-18T08:09:55.417Z,37.17
2022-12-18T08:12:21.686Z,37.17
2022-12-18T08:14:47.945Z,37.29
2022-12-18T08:17:14.499Z,37.51
2022-12-18T08:19:40.813Z,37.75
2022-12-18T08:22:07.092Z,37.69
2022-12-18T08:24:33.372Z,37.94
2022-12-18T08:27:27.803Z,37.65
2022-12-18T08:29:46.112Z,37.78
2022-12-18T08:32:12.439Z,38.13
2022-12-18T08:34:39.043Z,37.79
2022-12-18T08:37:05.376Z,37.97
2022-12-18T08:39:31.716Z,38.20
2022-12-18T08:42:16.665Z,38.23
2022-12-18T08:44:42.988Z,37.57
2022-12-18T08:47:09.272Z,37.08
2022-12-18T08:49:35.689Z,36.96
2022-12-18T08:52:03.565Z,36.82
2022-12-18T08:54:29.887Z,36.93
2022-12-18T08:56:56.191Z,36.61
2022-12-18T08:59:22.513Z,36.64
2022-12-18T09:01:49.173Z,36.99
2022-12-18T09:04:15.583Z,38.73
2022-12-18T09:06:41.853Z,38.99
2022-12-18T09:09:08.213Z,38.95
2022-12-18T09:11:34.483Z,39.54
2022-12-18T09:14:00.844Z,39.24
2022-12-18T09:16:32.245Z,39.43
2022-12-18T09:19:01.885Z,37.93
2022-12-18T09:21:29.157Z,38.92
2022-12-18T09:23:55.553Z,38.69
2022-12-18T09:26:22.144Z,39.49
2022-12-18T09:28:48.488Z,39.26
2022-12-18T09:31:15.023Z,39.21
2022-12-18T09:33:41.442Z,39.16
2022-12-18T09:36:08.663Z,38.91
2022-12-18T09:38:35.046Z,38.67
2022-12-18T09:41:19.604Z,39.13
2022-12-18T09:43:46.933Z,40.48
2022-12-18T09:46:16.999Z,40.72
2022-12-18T09:48:43.863Z,41.97
2022-12-18T09:51:13.324Z,42.17
2022-12-18T09:53:39.588Z,41.50
2022-12-18T09:56:05.940Z,41.29
2022-12-18T09:58:33.018Z,41.06
2022-12-18T10:00:59.355Z,40.73
2022-12-18T10:03:25.640Z,41.60
2022-12-18T10:05:57.952Z,41.40
2022-12-18T10:08:34.816Z,41.82
2022-12-18T10:11:24.324Z,42.30
2022-12-18T10:13:53.293Z,41.82
2022-12-18T10:16:36.837Z,41.90
2022-12-18T10:19:15.288Z,41.96
2022-12-18T10:22:03.255Z,40.28
2022-12-18T10:24:33.534Z,40.60
2022-12-18T10:27:14.832Z,40.67
2022-12-18T10:29:41.568Z,40.26
2022-12-18T10:32:08.037Z,40.14
2022-12-18T10:34:34.871Z,40.50
2022-12-18T10:37:01.910Z,41.30
2022-12-18T10:39:28.206Z,41.06
2022-12-18T10:42:10.180Z,40.89
2022-12-18T10:44:36.462Z,41.15
2022-12-18T10:47:10.176Z,41.07
2022-12-18T10:49:37.895Z,40.91
2022-12-18T10:52:17.820Z,41.06
2022-12-18T10:54:51.626Z,40.90
2022-12-18T10:57:18.874Z,40.90
2022-12-18T10:59:52.275Z,40.36
2022-12-18T11:02:38.978Z,40.92
2022-12-18T11:05:24.402Z,40.66
2022-12-18T11:07:55.020Z,40.35
2022-12-18T11:10:21.976Z,39.76
2022-12-18T11:12:48.430Z,39.70
2022-12-18T11:15:19.832Z,39.86
2022-12-18T11:17:46.138Z,39.36
2022-12-18T11:20:21.516Z,40.01
2022-12-18T11:23:01.009Z,40.65
2022-12-18T11:25:33.411Z,40.63
2022-12-18T11:28:04.513Z,39.75
2022-12-18T11:30:31.642Z,40.68
2022-12-18T11:33:05.490Z,41.04
2022-12-18T11:35:34.852Z,41.40
2022-12-18T11:40:49.008Z,41.28
2022-12-18T11:43:21.408Z,40.36
2022-12-18T11:45:52.191Z,41.07
2022-12-18T11:48:20.017Z,40.79
2022-12-18T11:50:46.271Z,41.58
2022-12-18T11:53:12.647Z,40.86
2022-12-18T11:55:57.537Z,40.20
2022-12-18T11:58:32.975Z,40.85
2022-12-18T12:01:03.653Z,39.97
2022-12-18T12:03:32.673Z,39.65
2022-12-18T12:06:15.532Z,38.88
2022-12-18T12:09:08.044Z,37.96
2022-12-18T12:12:03.486Z,37.74
2022-12-18T12:14:32.484Z,37.17
2022-12-18T12:17:18.984Z,37.42
2022-12-18T12:19:48.003Z,37.69
2022-12-18T12:22:29.412Z,37.85
2022-12-18T12:25:01.858Z,39.01
2022-12-18T12:27:31.802Z,38.94
2022-12-18T12:30:03.405Z,39.36
2022-12-18T12:32:48.544Z,39.21
2022-12-18T12:35:18.918Z,37.90
2022-12-18T12:38:00.452Z,37.84
2022-12-18T12:40:51.347Z,37.35
2022-12-18T12:43:16.773Z,36.89
2022-12-18T12:45:50.608Z,37.32
2022-12-18T12:48:18.500Z,37.33
2022-12-18T12:50:45.440Z,36.78
2022-12-18T12:53:23.243Z,36.60
2022-12-18T12:55:49.653Z,36.42
2022-12-18T12:58:17.937Z,36.80
2022-12-18T13:00:47.369Z,36.20
2022-12-18T13:03:17.029Z,35.91
2022-12-18T13:05:52.827Z,35.35
2022-12-18T13:08:26.423Z,35.08
2022-12-18T13:11:14.357Z,35.68
2022-12-18T13:13:52.924Z,35.59
2022-12-18T13:16:19.669Z,37.48
2022-12-18T13:18:49.457Z,36.08
2022-12-18T13:21:20.180Z,36.61
2022-12-18T13:23:46.776Z,35.40
2022-12-18T13:26:27.979Z,35.26
2022-12-18T13:28:55.619Z,35.57
2022-12-18T13:31:40.332Z,35.78
2022-12-18T13:34:29.519Z,35.85
2022-12-18T13:36:57.200Z,35.36
2022-12-18T13:39:28.897Z,35.30
2022-12-18T13:42:06.912Z,34.81
2022-12-18T13:44:40.622Z,34.36
2022-12-18T13:47:26.326Z,34.83
2022-12-18T13:49:52.692Z,34.62
2022-12-18T13:52:25.019Z,34.76
2022-12-18T13:54:55.101Z,34.19
2022-12-18T13:57:28.936Z,34.08
2022-12-18T13:59:55.366Z,34.29
2022-12-18T14:02:23.098Z,33.81
2022-12-18T14:04:50.119Z,33.54
2022-12-18T14:07:18.008Z,33.96
2022-12-18T14:09:49.881Z,33.98
2022-12-18T14:12:35.727Z,33.46
2022-12-18T14:15:02.009Z,33.72
2022-12-18T14:17:28.278Z,33.34
2022-12-18T14:19:54.879Z,33.06
2022-12-18T14:22:22.118Z,32.99
2022-12-18T14:24:48.489Z,33.36
2022-12-18T14:27:22.199Z,33.21
2022-12-18T14:29:48.475Z,33.41
2022-12-18T14:32:18.713Z,33.52
2022-12-18T14:34:52.251Z,34.35
2022-12-18T14:37:20.943Z,33.59
2022-12-18T14:39:57.881Z,32.72
2022-12-18T14:42:24.368Z,33.50
2022-12-18T14:45:12.467Z,33.80
2022-12-18T14:47:36.939Z,33.35
2022-12-18T14:50:03.273Z,33.46
2022-12-18T14:52:29.926Z,32.76
2022-12-18T14:54:56.213Z,33.25
2022-12-18T14:57:24.023Z,33.33
2022-12-18T14:59:50.431Z,33.03
2022-12-18T15:02:23.992Z,33.29
2022-12-18T15:05:08.455Z,33.02
2022-12-18T15:07:42.569Z,32.88
2022-12-18T15:10:08.823Z,32.31
2022-12-18T15:12:36.043Z,32.45
2022-12-18T15:15:02.383Z,32.26
2022-12-18T15:17:28.688Z,32.10
2022-12-18T15:19:59.546Z,32.94
2022-12-18T15:22:26.988Z,32.62
2022-12-18T15:24:53.401Z,32.94
2022-12-18T15:27:36.581Z,32.40
2022-12-18T15:30:11.076Z,32.25
2022-12-18T15:32:37.528Z,32.97
2022-12-18T15:35:14.035Z,32.46
2022-12-18T15:37:40.323Z,32.39
2022-12-18T15:40:07.872Z,32.17
2022-12-18T15:42:52.836Z,32.85
2022-12-18T15:45:19.270Z,32.74
2022-12-18T15:47:46.247Z,33.05
2022-12-18T15:50:12.599Z,33.71
2022-12-18T15:52:45.291Z,33.43
2022-12-18T15:55:31.328Z,33.48
2022-12-18T15:57:57.776Z,33.55
2022-12-18T16:00:24.083Z,33.74
2022-12-18T16:02:50.649Z,33.74
2022-12-18T16:05:17.899Z,33.52
2022-12-18T16:07:44.641Z,32.87
2022-12-18T16:10:11.025Z,33.29
2022-12-18T16:12:37.291Z,33.22
2022-12-18T16:15:03.928Z,32.54
2022-12-18T16:17:30.284Z,32.74
2022-12-18T16:19:56.557Z,32.79
2022-12-18T16:22:26.448Z,33.13
2022-12-18T16:24:52.901Z,33.02
2022-12-18T16:27:19.521Z,32.55
2022-12-18T16:29:45.787Z,32.45
2022-12-18T16:32:15.927Z,32.61
2022-12-18T16:34:43.052Z,32.84
2022-12-18T16:37:09.440Z,32.80
2022-12-18T16:39:36.084Z,33.15
2022-12-18T16:42:06.039Z,32.74
2022-12-18T16:44:32.828Z,32.66
2022-12-18T16:47:02.596Z,32.62
2022-12-18T16:49:29.054Z,32.49
2022-12-18T16:51:55.367Z,32.16
2022-12-18T16:54:21.635Z,32.52
2022-12-18T16:56:49.842Z,31.92
2022-12-18T16:59:16.152Z,32.02
2022-12-18T17:01:42.556Z,32.90
2022-12-18T17:04:09.096Z,32.00
2022-12-18T17:06:36.221Z,32.01
2022-12-18T17:09:03.393Z,31.55
2022-12-18T17:11:31.021Z,31.40
2022-12-18T17:13:57.322Z,31.65
2022-12-18T17:16:24.625Z,31.51
2022-12-18T17:18:50.934Z,31.40
2022-12-18T17:21:17.645Z,32.10
2022-12-18T17:23:44.283Z,32.26
2022-12-18T17:26:11.177Z,32.61
2022-12-18T17:28:37.655Z,32.92
2022-12-18T17:31:10.374Z,32.62
2022-12-18T17:33:36.731Z,31.99
2022-12-18T17:36:03.050Z,32.03
2022-12-18T17:38:29.340Z,31.63
2022-12-18T17:41:00.098Z,32.05
2022-12-18T17:43:26.361Z,31.97
2022-12-18T17:45:52.644Z,32.40
2022-12-18T17:48:18.932Z,32.60
2022-12-18T17:50:45.783Z,32.55
2022-12-18T17:53:12.240Z,32.26
2022-12-18T17:55:38.507Z,31.84
2022-12-18T17:58:04.779Z,32.01
2022-12-18T18:00:31.164Z,32.07
2022-12-18T18:02:57.681Z,32.29
2022-12-18T18:05:24.145Z,32.46
2022-12-18T18:07:50.466Z,32.58
2022-12-18T18:10:18.880Z,32.69
2022-12-18T18:13:03.418Z,32.14
2022-12-18T18:15:29.696Z,32.22
2022-12-18T18:17:55.983Z,32.84
2022-12-18T18:20:22.804Z,32.35
2022-12-18T18:22:49.546Z,31.99
2022-12-18T18:25:16.872Z,32.53
2022-12-18T18:27:44.370Z,32.60
2022-12-18T18:30:13.693Z,32.25
2022-12-18T18:32:40.268Z,32.25
2022-12-18T18:35:12.387Z,31.42
2022-12-18T18:37:47.587Z,31.48
2022-12-18T18:40:13.871Z,32.01
2022-12-18T18:42:40.129Z,31.99
2022-12-18T18:45:06.556Z,31.90
2022-12-18T18:47:32.836Z,32.55
2022-12-18T18:49:59.243Z,32.46
2022-12-18T18:52:25.605Z,33.10
2022-12-18T18:55:12.302Z,33.76
2022-12-18T18:57:38.160Z,33.14
2022-12-18T19:00:04.744Z,33.23
2022-12-18T19:02:31.092Z,32.64
2022-12-18T19:04:57.829Z,32.31
2022-12-18T19:07:30.222Z,32.17
2022-12-18T19:09:57.147Z,32.05
2022-12-18T19:12:44.465Z,32.04
2022-12-18T19:15:10.738Z,32.31
2022-12-18T19:17:40.048Z,32.95
2022-12-18T19:20:06.788Z,32.65
2022-12-18T19:22:34.688Z,33.03
2022-12-18T19:25:01.016Z,32.75
2022-12-18T19:27:27.295Z,32.89
2022-12-18T19:29:53.572Z,32.32
2022-12-18T19:32:19.944Z,32.23
2022-12-18T19:34:46.497Z,32.20
2022-12-18T19:37:14.329Z,32.37
2022-12-18T19:39:40.630Z,32.02
2022-12-18T19:42:06.879Z,31.88
2022-12-18T19:44:33.176Z,31.38
2022-12-18T19:46:59.436Z,31.85
2022-12-18T19:49:25.705Z,32.72
2022-12-18T19:51:52.019Z,31.48
2022-12-18T19:54:18.381Z,32.71
2022-12-18T19:56:44.897Z,33.49
2022-12-18T19:59:11.157Z,32.60
2022-12-18T20:01:37.559Z,33.11
2022-12-18T20:04:04.424Z,33.19
2022-12-18T20:06:32.446Z,33.74
2022-12-18T20:09:00.418Z,33.46
2022-12-18T20:11:27.087Z,33.32
2022-12-18T20:13:53.362Z,33.50
2022-12-18T20:16:19.804Z,34.02
2022-12-18T20:18:46.203Z,33.97
2022-12-18T20:21:14.197Z,32.99
2022-12-18T20:23:41.094Z,32.82
2022-12-18T20:26:07.804Z,33.12
2022-12-18T20:28:35.038Z,33.32
2022-12-18T20:31:01.759Z,32.66
2022-12-18T20:33:28.058Z,33.54
2022-12-18T20:35:54.450Z,34.36
2022-12-18T20:38:21.592Z,33.05
2022-12-18T20:40:49.948Z,32.93
2022-12-18T20:43:17.523Z,33.35
2022-12-18T20:45:43.916Z,34.89
2022-12-18T20:48:12.136Z,34.61
2022-12-18T20:50:38.443Z,35.17
2022-12-18T20:53:04.795Z,35.30
2022-12-18T20:55:31.127Z,34.15
2022-12-18T20:57:58.001Z,33.45
2022-12-18T21:00:24.293Z,33.23
2022-12-18T21:02:50.712Z,33.02
2022-12-18T21:05:17.150Z,33.75
2022-12-18T21:07:43.498Z,34.64
2022-12-18T21:10:09.854Z,33.80
2022-12-18T21:12:43.930Z,34.61
2022-12-18T21:15:28.325Z,34.22
2022-12-18T21:17:55.131Z,33.42
2022-12-18T21:20:21.429Z,33.80
2022-12-18T21:22:49.138Z,33.98
2022-12-18T21:25:15.416Z,34.78
2022-12-18T21:27:41.676Z,33.80
2022-12-18T21:30:08.369Z,33.23
2022-12-18T21:32:34.877Z,33.76
2022-12-18T21:35:01.150Z,34.14
2022-12-18T21:37:27.437Z,33.57
2022-12-18T21:39:53.729Z,34.41
2022-12-18T21:42:38.451Z,33.81
2022-12-18T21:45:04.841Z,35.72
2022-12-18T21:47:31.299Z,34.64
2022-12-18T21:49:57.588Z,33.91
2022-12-18T21:52:31.695Z,33.78
2022-12-18T21:55:03.094Z,33.52
2022-12-18T21:57:34.545Z,32.28
2022-12-18T22:00:01.948Z,33.05
2022-12-18T22:02:28.440Z,33.77
2022-12-18T22:04:54.800Z,33.80
2022-12-18T22:07:21.538Z,33.98
2022-12-18T22:09:49.416Z,33.71
2022-12-18T22:12:34.984Z,34.80
2022-12-18T22:15:01.676Z,33.40
2022-12-18T22:17:27.941Z,33.76
2022-12-18T22:19:54.420Z,34.00
2022-12-18T22:22:20.854Z,34.53
2022-12-18T22:24:47.117Z,34.80
2022-12-18T22:27:13.373Z,34.84
2022-12-18T22:29:58.065Z,34.69
2022-12-18T22:32:30.763Z,33.04
2022-12-18T22:35:03.263Z,31.96
2022-12-18T22:37:32.472Z,32.48
2022-12-18T22:39:58.744Z,33.50
2022-12-18T22:42:25.261Z,32.89
2022-12-18T22:44:51.553Z,30.96
2022-12-18T22:47:17.922Z,32.74
2022-12-18T22:49:44.184Z,32.57
2022-12-18T22:52:10.537Z,31.00
2022-12-18T22:54:36.849Z,30.38
2022-12-18T22:57:03.252Z,29.67
2022-12-18T22:59:29.527Z,28.59
2022-12-18T23:01:58.599Z,30.74
2022-12-18T23:04:33.447Z,32.14
2022-12-18T23:07:02.620Z,33.59
2022-12-18T23:09:28.897Z,33.70
2022-12-18T23:11:55.188Z,32.71
2022-12-18T23:14:21.478Z,33.08
2022-12-18T23:16:47.795Z,33.14
2022-12-18T23:19:16.182Z,33.66
2022-12-18T23:21:42.442Z,34.39
2022-12-18T23:24:08.804Z,33.46
2022-12-18T23:26:35.312Z,33.01
2022-12-18T23:29:01.672Z,33.81
2022-12-18T23:31:28.707Z,35.58
2022-12-18T23:33:55.433Z,34.86
2022-12-18T23:36:22.101Z,33.58
2022-12-18T23:38:52.347Z,35.58
2022-12-18T23:41:19.245Z,35.43
2022-12-18T23:43:45.613Z,34.29
2022-12-18T23:46:13.824Z,34.19
2022-12-18T23:48:40.167Z,35.24
2022-12-18T23:51:10.011Z,34.93
2022-12-18T23:53:36.276Z,34.87
2022-12-18T23:56:02.739Z,33.62
2022-12-18T23:58:30.033Z,34.05
